sensor_id;sensor_type;location;lat;lon;timestamp;P1;durP1;ratioP1;P2;durP2;ratioP2
23702;SDS011;12030;50.376;8.762;2022-09-09T00:04:22;5.23;;;1.03;;
23702;SDS011;12030;50.376;8.762;2022-09-09T00:09:45;4.97;;;1.50;;
23702;SDS011;12030;50.376;8.762;2022-09-09T00:12:22;2.70;;;0.80;;
23702;SDS011;12030;50.376;8.762;2022-09-09T00:15:11;2.83;;;1.10;;
23702;SDS011;12030;50.376;8.762;2022-09-09T00:17:39;3.50;;;1.23;;
23702;SDS011;12030;50.376;8.762;2022-09-09T00:23:12;5.67;;;1.37;;
23702;SDS011;12030;50.376;8.762;2022-09-09T00:28:24;4.27;;;1.10;;
23702;SDS011;12030;50.376;8.762;2022-09-09T00:30:52;3.23;;;0.90;;
23702;SDS011;12030;50.376;8.762;2022-09-09T00:33:19;4.47;;;2.00;;
23702;SDS011;12030;50.376;8.762;2022-09-09T00:35:48;2.47;;;0.93;;
23702;SDS011;12030;50.376;8.762;2022-09-09T00:38:20;2.37;;;0.90;;
23702;SDS011;12030;50.376;8.762;2022-09-09T00:41:05;1.90;;;0.97;;
23702;SDS011;12030;50.376;8.762;2022-09-09T00:43:42;2.50;;;1.10;;
23702;SDS011;12030;50.376;8.762;2022-09-09T00:49:33;3.90;;;1.10;;
23702;SDS011;12030;50.376;8.762;2022-09-09T00:55:16;3.23;;;0.90;;
23702;SDS011;12030;50.376;8.762;2022-09-09T00:58:06;2.80;;;1.00;;
23702;SDS011;12030;50.376;8.762;2022-09-09T01:00:35;3.83;;;1.00;;
23702;SDS011;12030;50.376;8.762;2022-09-09T01:11:22;4.47;;;1.20;;
23702;SDS011;12030;50.376;8.762;2022-09-09T01:16:37;3.17;;;0.93;;
23702;SDS011;12030;50.376;8.762;2022-09-09T01:19:03;5.10;;;1.27;;
23702;SDS011;12030;50.376;8.762;2022-09-09T01:21:40;2.73;;;1.30;;
23702;SDS011;12030;50.376;8.762;2022-09-09T01:24:27;4.63;;;1.17;;
23702;SDS011;12030;50.376;8.762;2022-09-09T01:27:03;2.47;;;1.23;;
23702;SDS011;12030;50.376;8.762;2022-09-09T01:29:31;2.30;;;0.93;;
23702;SDS011;12030;50.376;8.762;2022-09-09T01:31:58;4.30;;;1.03;;
23702;SDS011;12030;50.376;8.762;2022-09-09T01:34:47;3.50;;;1.53;;
23702;SDS011;12030;50.376;8.762;2022-09-09T01:37:13;4.20;;;1.00;;
23702;SDS011;12030;50.376;8.762;2022-09-09T01:39:39;5.00;;;1.00;;
23702;SDS011;12030;50.376;8.762;2022-09-09T01:42:09;6.40;;;1.33;;
23702;SDS011;12030;50.376;8.762;2022-09-09T01:44:36;3.67;;;1.13;;
23702;SDS011;12030;50.376;8.762;2022-09-09T01:47:02;4.57;;;1.33;;
23702;SDS011;12030;50.376;8.762;2022-09-09T01:49:28;4.10;;;1.10;;
23702;SDS011;12030;50.376;8.762;2022-09-09T01:51:55;2.17;;;1.07;;
23702;SDS011;12030;50.376;8.762;2022-09-09T01:54:22;5.00;;;1.10;;
23702;SDS011;12030;50.376;8.762;2022-09-09T02:02:20;1.97;;;1.20;;
23702;SDS011;12030;50.376;8.762;2022-09-09T02:04:51;3.73;;;1.00;;
23702;SDS011;12030;50.376;8.762;2022-09-09T02:07:41;3.97;;;1.20;;
23702;SDS011;12030;50.376;8.762;2022-09-09T02:10:24;2.10;;;0.90;;
23702;SDS011;12030;50.376;8.762;2022-09-09T02:13:15;1.80;;;0.83;;
23702;SDS011;12030;50.376;8.762;2022-09-09T02:18:20;5.03;;;1.27;;
23702;SDS011;12030;50.376;8.762;2022-09-09T02:20:51;3.63;;;1.10;;
23702;SDS011;12030;50.376;8.762;2022-09-09T02:23:18;3.63;;;1.07;;
23702;SDS011;12030;50.376;8.762;2022-09-09T02:25:45;6.87;;;1.43;;
23702;SDS011;12030;50.376;8.762;2022-09-09T02:28:13;4.10;;;1.37;;
23702;SDS011;12030;50.376;8.762;2022-09-09T02:30:41;3.57;;;1.70;;
23702;SDS011;12030;50.376;8.762;2022-09-09T02:33:12;2.33;;;1.00;;
23702;SDS011;12030;50.376;8.762;2022-09-09T02:35:39;3.07;;;1.00;;
23702;SDS011;12030;50.376;8.762;2022-09-09T02:38:08;3.17;;;1.53;;
23702;SDS011;12030;50.376;8.762;2022-09-09T02:40:36;3.77;;;1.57;;
23702;SDS011;12030;50.376;8.762;2022-09-09T02:43:02;5.10;;;1.80;;
23702;SDS011;12030;50.376;8.762;2022-09-09T02:45:31;2.47;;;1.30;;
23702;SDS011;12030;50.376;8.762;2022-09-09T02:50:57;2.43;;;1.20;;
23702;SDS011;12030;50.376;8.762;2022-09-09T02:53:39;6.67;;;1.83;;
23702;SDS011;12030;50.376;8.762;2022-09-09T02:56:21;4.17;;;1.27;;
23702;SDS011;12030;50.376;8.762;2022-09-09T02:58:50;3.60;;;1.20;;
23702;SDS011;12030;50.376;8.762;2022-09-09T03:01:17;2.23;;;0.80;;
23702;SDS011;12030;50.376;8.762;2022-09-09T03:03:42;3.67;;;0.93;;
23702;SDS011;12030;50.376;8.762;2022-09-09T03:06:09;1.63;;;0.90;;
23702;SDS011;12030;50.376;8.762;2022-09-09T03:08:36;2.27;;;1.00;;
23702;SDS011;12030;50.376;8.762;2022-09-09T03:11:02;3.37;;;1.13;;
23702;SDS011;12030;50.376;8.762;2022-09-09T03:13:28;1.50;;;1.13;;
23702;SDS011;12030;50.376;8.762;2022-09-09T03:15:54;2.87;;;1.00;;
23702;SDS011;12030;50.376;8.762;2022-09-09T03:18:19;3.07;;;0.97;;
23702;SDS011;12030;50.376;8.762;2022-09-09T03:20:45;2.03;;;0.97;;
23702;SDS011;12030;50.376;8.762;2022-09-09T03:23:13;2.47;;;1.03;;
23702;SDS011;12030;50.376;8.762;2022-09-09T03:25:39;3.80;;;1.20;;
23702;SDS011;12030;50.376;8.762;2022-09-09T03:28:11;3.10;;;1.00;;
23702;SDS011;12030;50.376;8.762;2022-09-09T03:30:36;2.53;;;0.97;;
23702;SDS011;12030;50.376;8.762;2022-09-09T03:33:02;3.17;;;1.00;;
23702;SDS011;12030;50.376;8.762;2022-09-09T03:35:28;2.90;;;1.10;;
23702;SDS011;12030;50.376;8.762;2022-09-09T03:37:54;3.40;;;1.73;;
23702;SDS011;12030;50.376;8.762;2022-09-09T03:40:20;6.63;;;1.33;;
23702;SDS011;12030;50.376;8.762;2022-09-09T03:42:46;2.87;;;1.20;;
23702;SDS011;12030;50.376;8.762;2022-09-09T03:45:13;2.67;;;1.10;;
23702;SDS011;12030;50.376;8.762;2022-09-09T03:47:38;4.00;;;1.03;;
23702;SDS011;12030;50.376;8.762;2022-09-09T03:50:05;1.83;;;0.83;;
23702;SDS011;12030;50.376;8.762;2022-09-09T03:52:34;4.83;;;1.20;;
23702;SDS011;12030;50.376;8.762;2022-09-09T03:55:00;4.90;;;1.63;;
23702;SDS011;12030;50.376;8.762;2022-09-09T03:57:26;5.00;;;1.00;;
23702;SDS011;12030;50.376;8.762;2022-09-09T03:59:52;2.63;;;1.07;;
23702;SDS011;12030;50.376;8.762;2022-09-09T04:02:17;2.67;;;1.07;;
23702;SDS011;12030;50.376;8.762;2022-09-09T04:04:43;3.03;;;1.33;;
23702;SDS011;12030;50.376;8.762;2022-09-09T04:07:08;3.93;;;1.00;;
23702;SDS011;12030;50.376;8.762;2022-09-09T04:09:34;2.60;;;1.10;;
23702;SDS011;12030;50.376;8.762;2022-09-09T04:11:59;4.33;;;1.10;;
23702;SDS011;12030;50.376;8.762;2022-09-09T04:14:25;3.70;;;1.20;;
23702;SDS011;12030;50.376;8.762;2022-09-09T04:16:53;4.63;;;0.93;;
23702;SDS011;12030;50.376;8.762;2022-09-09T04:19:19;2.80;;;0.90;;
23702;SDS011;12030;50.376;8.762;2022-09-09T04:21:44;4.03;;;0.80;;
23702;SDS011;12030;50.376;8.762;2022-09-09T04:24:10;2.20;;;1.00;;
23702;SDS011;12030;50.376;8.762;2022-09-09T04:26:37;4.07;;;0.90;;
23702;SDS011;12030;50.376;8.762;2022-09-09T04:29:03;3.37;;;1.07;;
23702;SDS011;12030;50.376;8.762;2022-09-09T04:31:29;3.90;;;1.13;;
23702;SDS011;12030;50.376;8.762;2022-09-09T04:33:55;3.63;;;0.90;;
23702;SDS011;12030;50.376;8.762;2022-09-09T04:36:20;7.00;;;1.00;;
23702;SDS011;12030;50.376;8.762;2022-09-09T04:38:46;2.90;;;0.87;;
23702;SDS011;12030;50.376;8.762;2022-09-09T04:41:13;3.50;;;0.97;;
23702;SDS011;12030;50.376;8.762;2022-09-09T04:43:39;3.33;;;0.83;;
23702;SDS011;12030;50.376;8.762;2022-09-09T04:46:05;4.73;;;0.73;;
23702;SDS011;12030;50.376;8.762;2022-09-09T04:48:31;4.40;;;0.80;;
23702;SDS011;12030;50.376;8.762;2022-09-09T04:51:03;2.50;;;0.70;;
23702;SDS011;12030;50.376;8.762;2022-09-09T04:53:30;2.10;;;0.70;;
23702;SDS011;12030;50.376;8.762;2022-09-09T04:56:03;2.83;;;0.77;;
23702;SDS011;12030;50.376;8.762;2022-09-09T04:58:34;4.90;;;1.27;;
23702;SDS011;12030;50.376;8.762;2022-09-09T05:03:33;1.47;;;0.80;;
23702;SDS011;12030;50.376;8.762;2022-09-09T05:06:03;2.30;;;0.60;;
23702;SDS011;12030;50.376;8.762;2022-09-09T05:08:29;1.80;;;0.77;;
23702;SDS011;12030;50.376;8.762;2022-09-09T05:10:54;2.83;;;0.80;;
23702;SDS011;12030;50.376;8.762;2022-09-09T05:13:20;4.90;;;1.10;;
23702;SDS011;12030;50.376;8.762;2022-09-09T05:15:52;2.47;;;0.80;;
23702;SDS011;12030;50.376;8.762;2022-09-09T05:18:18;5.27;;;1.00;;
23702;SDS011;12030;50.376;8.762;2022-09-09T05:20:44;5.27;;;1.60;;
23702;SDS011;12030;50.376;8.762;2022-09-09T05:23:10;3.37;;;0.80;;
23702;SDS011;12030;50.376;8.762;2022-09-09T05:25:37;3.03;;;0.80;;
23702;SDS011;12030;50.376;8.762;2022-09-09T05:28:02;1.80;;;0.70;;
23702;SDS011;12030;50.376;8.762;2022-09-09T05:30:28;4.60;;;1.07;;
23702;SDS011;12030;50.376;8.762;2022-09-09T05:32:55;3.57;;;0.90;;
23702;SDS011;12030;50.376;8.762;2022-09-09T05:35:21;2.93;;;0.77;;
23702;SDS011;12030;50.376;8.762;2022-09-09T05:37:48;3.37;;;0.70;;
23702;SDS011;12030;50.376;8.762;2022-09-09T05:40:13;3.83;;;0.70;;
23702;SDS011;12030;50.376;8.762;2022-09-09T05:42:39;8.03;;;1.10;;
23702;SDS011;12030;50.376;8.762;2022-09-09T05:45:06;2.03;;;0.80;;
23702;SDS011;12030;50.376;8.762;2022-09-09T05:47:32;2.63;;;1.40;;
23702;SDS011;12030;50.376;8.762;2022-09-09T05:49:58;4.63;;;1.00;;
23702;SDS011;12030;50.376;8.762;2022-09-09T05:52:24;2.57;;;1.00;;
23702;SDS011;12030;50.376;8.762;2022-09-09T05:54:51;4.10;;;1.10;;
23702;SDS011;12030;50.376;8.762;2022-09-09T05:57:16;5.03;;;0.90;;
23702;SDS011;12030;50.376;8.762;2022-09-09T05:59:42;3.70;;;1.23;;
23702;SDS011;12030;50.376;8.762;2022-09-09T06:02:08;3.63;;;1.60;;
23702;SDS011;12030;50.376;8.762;2022-09-09T06:04:34;3.77;;;1.37;;
23702;SDS011;12030;50.376;8.762;2022-09-09T06:06:59;3.67;;;1.27;;
23702;SDS011;12030;50.376;8.762;2022-09-09T06:09:25;4.37;;;1.50;;
23702;SDS011;12030;50.376;8.762;2022-09-09T06:11:51;4.23;;;1.27;;
23702;SDS011;12030;50.376;8.762;2022-09-09T06:14:17;4.03;;;1.83;;
23702;SDS011;12030;50.376;8.762;2022-09-09T06:16:46;3.97;;;1.67;;
23702;SDS011;12030;50.376;8.762;2022-09-09T06:19:12;3.80;;;1.50;;
23702;SDS011;12030;50.376;8.762;2022-09-09T06:21:37;2.97;;;1.50;;
23702;SDS011;12030;50.376;8.762;2022-09-09T06:24:03;4.07;;;1.67;;
23702;SDS011;12030;50.376;8.762;2022-09-09T06:26:30;3.53;;;1.60;;
23702;SDS011;12030;50.376;8.762;2022-09-09T06:28:58;3.07;;;1.47;;
23702;SDS011;12030;50.376;8.762;2022-09-09T06:31:25;3.83;;;1.43;;
23702;SDS011;12030;50.376;8.762;2022-09-09T06:33:55;3.97;;;1.40;;
23702;SDS011;12030;50.376;8.762;2022-09-09T06:38:48;2.47;;;1.37;;
23702;SDS011;12030;50.376;8.762;2022-09-09T06:41:15;3.63;;;1.67;;
23702;SDS011;12030;50.376;8.762;2022-09-09T06:43:42;6.37;;;1.50;;
23702;SDS011;12030;50.376;8.762;2022-09-09T06:48:35;5.00;;;1.60;;
23702;SDS011;12030;50.376;8.762;2022-09-09T06:51:05;3.97;;;1.80;;
23702;SDS011;12030;50.376;8.762;2022-09-09T06:53:33;5.97;;;2.00;;
23702;SDS011;12030;50.376;8.762;2022-09-09T06:56:00;3.80;;;1.53;;
23702;SDS011;12030;50.376;8.762;2022-09-09T06:58:27;4.07;;;1.57;;
23702;SDS011;12030;50.376;8.762;2022-09-09T07:01:01;6.47;;;1.73;;
23702;SDS011;12030;50.376;8.762;2022-09-09T07:03:31;6.30;;;2.63;;
23702;SDS011;12030;50.376;8.762;2022-09-09T07:05:57;4.83;;;1.70;;
23702;SDS011;12030;50.376;8.762;2022-09-09T07:08:24;4.17;;;1.80;;
23702;SDS011;12030;50.376;8.762;2022-09-09T07:10:49;2.97;;;1.30;;
23702;SDS011;12030;50.376;8.762;2022-09-09T07:13:18;5.23;;;1.63;;
23702;SDS011;12030;50.376;8.762;2022-09-09T07:15:51;5.17;;;1.80;;
23702;SDS011;12030;50.376;8.762;2022-09-09T07:18:17;5.27;;;2.27;;
23702;SDS011;12030;50.376;8.762;2022-09-09T07:20:42;10.13;;;1.70;;
23702;SDS011;12030;50.376;8.762;2022-09-09T07:23:17;4.47;;;2.00;;
23702;SDS011;12030;50.376;8.762;2022-09-09T07:25:45;5.83;;;1.83;;
23702;SDS011;12030;50.376;8.762;2022-09-09T07:28:12;5.30;;;1.70;;
23702;SDS011;12030;50.376;8.762;2022-09-09T07:30:38;6.10;;;1.90;;
23702;SDS011;12030;50.376;8.762;2022-09-09T07:33:05;4.33;;;1.90;;
23702;SDS011;12030;50.376;8.762;2022-09-09T07:35:31;2.67;;;1.47;;
23702;SDS011;12030;50.376;8.762;2022-09-09T07:37:56;5.00;;;1.80;;
23702;SDS011;12030;50.376;8.762;2022-09-09T07:40:23;4.60;;;2.07;;
23702;SDS011;12030;50.376;8.762;2022-09-09T07:42:49;4.30;;;1.80;;
23702;SDS011;12030;50.376;8.762;2022-09-09T07:45:14;2.77;;;1.50;;
23702;SDS011;12030;50.376;8.762;2022-09-09T07:47:40;2.10;;;1.30;;
23702;SDS011;12030;50.376;8.762;2022-09-09T07:50:09;6.20;;;1.70;;
23702;SDS011;12030;50.376;8.762;2022-09-09T07:52:35;7.70;;;2.10;;
23702;SDS011;12030;50.376;8.762;2022-09-09T07:55:01;2.93;;;1.60;;
23702;SDS011;12030;50.376;8.762;2022-09-09T07:57:28;5.17;;;1.60;;
23702;SDS011;12030;50.376;8.762;2022-09-09T07:59:55;3.63;;;1.37;;
23702;SDS011;12030;50.376;8.762;2022-09-09T08:02:22;6.37;;;1.50;;
23702;SDS011;12030;50.376;8.762;2022-09-09T08:04:48;4.83;;;1.47;;
23702;SDS011;12030;50.376;8.762;2022-09-09T08:07:14;5.30;;;1.50;;
23702;SDS011;12030;50.376;8.762;2022-09-09T08:09:41;3.47;;;1.40;;
23702;SDS011;12030;50.376;8.762;2022-09-09T08:12:06;5.03;;;1.50;;
23702;SDS011;12030;50.376;8.762;2022-09-09T08:14:33;4.57;;;1.53;;
23702;SDS011;12030;50.376;8.762;2022-09-09T08:16:58;3.60;;;1.50;;
23702;SDS011;12030;50.376;8.762;2022-09-09T08:19:24;2.83;;;1.30;;
23702;SDS011;12030;50.376;8.762;2022-09-09T08:21:50;7.63;;;1.20;;
23702;SDS011;12030;50.376;8.762;2022-09-09T08:24:15;6.13;;;1.30;;
23702;SDS011;12030;50.376;8.762;2022-09-09T08:26:42;4.93;;;1.83;;
23702;SDS011;12030;50.376;8.762;2022-09-09T08:29:10;5.97;;;1.57;;
23702;SDS011;12030;50.376;8.762;2022-09-09T08:31:45;1.93;;;1.00;;
23702;SDS011;12030;50.376;8.762;2022-09-09T08:34:12;2.30;;;0.97;;
23702;SDS011;12030;50.376;8.762;2022-09-09T08:36:39;4.20;;;1.10;;
23702;SDS011;12030;50.376;8.762;2022-09-09T08:39:10;4.43;;;1.37;;
23702;SDS011;12030;50.376;8.762;2022-09-09T08:44:28;5.17;;;1.40;;
23702;SDS011;12030;50.376;8.762;2022-09-09T08:52:51;3.73;;;1.20;;
23702;SDS011;12030;50.376;8.762;2022-09-09T08:57:49;3.47;;;1.30;;
23702;SDS011;12030;50.376;8.762;2022-09-09T09:00:18;2.90;;;1.20;;
23702;SDS011;12030;50.376;8.762;2022-09-09T09:02:57;5.87;;;1.20;;
23702;SDS011;12030;50.376;8.762;2022-09-09T09:08:08;3.87;;;1.33;;
23702;SDS011;12030;50.376;8.762;2022-09-09T09:10:50;4.17;;;1.30;;
23702;SDS011;12030;50.376;8.762;2022-09-09T09:13:38;4.33;;;1.40;;
23702;SDS011;12030;50.376;8.762;2022-09-09T09:16:34;3.63;;;1.10;;
23702;SDS011;12030;50.376;8.762;2022-09-09T09:19:08;4.37;;;1.50;;
23702;SDS011;12030;50.376;8.762;2022-09-09T09:21:40;3.57;;;1.70;;
23702;SDS011;12030;50.376;8.762;2022-09-09T09:24:35;4.27;;;1.30;;
23702;SDS011;12030;50.376;8.762;2022-09-09T09:27:10;5.67;;;1.40;;
23702;SDS011;12030;50.376;8.762;2022-09-09T09:29:43;4.47;;;1.50;;
23702;SDS011;12030;50.376;8.762;2022-09-09T09:32:11;2.87;;;1.43;;
23702;SDS011;12030;50.376;8.762;2022-09-09T09:34:41;3.10;;;1.30;;
23702;SDS011;12030;50.376;8.762;2022-09-09T09:37:12;4.43;;;1.33;;
23702;SDS011;12030;50.376;8.762;2022-09-09T09:39:44;3.60;;;1.20;;
23702;SDS011;12030;50.376;8.762;2022-09-09T09:42:13;4.90;;;1.70;;
23702;SDS011;12030;50.376;8.762;2022-09-09T09:44:42;3.07;;;1.37;;
23702;SDS011;12030;50.376;8.762;2022-09-09T09:47:15;3.40;;;1.30;;
23702;SDS011;12030;50.376;8.762;2022-09-09T09:49:56;5.93;;;1.63;;
23702;SDS011;12030;50.376;8.762;2022-09-09T09:52:25;3.50;;;1.33;;
23702;SDS011;12030;50.376;8.762;2022-09-09T09:54:53;4.23;;;1.40;;
23702;SDS011;12030;50.376;8.762;2022-09-09T09:57:22;4.07;;;1.30;;
23702;SDS011;12030;50.376;8.762;2022-09-09T10:00:12;3.10;;;1.40;;
23702;SDS011;12030;50.376;8.762;2022-09-09T10:02:41;3.00;;;1.27;;
23702;SDS011;12030;50.376;8.762;2022-09-09T10:07:37;5.60;;;1.47;;
23702;SDS011;12030;50.376;8.762;2022-09-09T10:10:03;4.07;;;0.60;;
23702;SDS011;12030;50.376;8.762;2022-09-09T10:12:40;1.70;;;0.40;;
23702;SDS011;12030;50.376;8.762;2022-09-09T10:38:03;1.67;;;0.80;;
23702;SDS011;12030;50.376;8.762;2022-09-09T10:43:35;2.53;;;0.90;;
23702;SDS011;12030;50.376;8.762;2022-09-09T10:55:10;2.37;;;1.30;;
23702;SDS011;12030;50.376;8.762;2022-09-09T10:57:44;3.27;;;1.37;;
23702;SDS011;12030;50.376;8.762;2022-09-09T11:02:44;4.60;;;1.30;;
23702;SDS011;12030;50.376;8.762;2022-09-09T11:05:22;4.53;;;1.17;;
23702;SDS011;12030;50.376;8.762;2022-09-09T11:08:15;2.80;;;0.70;;
23702;SDS011;12030;50.376;8.762;2022-09-09T11:10:48;2.80;;;0.93;;
23702;SDS011;12030;50.376;8.762;2022-09-09T11:13:37;3.83;;;0.70;;
23702;SDS011;12030;50.376;8.762;2022-09-09T11:16:24;3.87;;;0.90;;
23702;SDS011;12030;50.376;8.762;2022-09-09T11:18:51;4.90;;;1.00;;
23702;SDS011;12030;50.376;8.762;2022-09-09T11:21:26;3.83;;;1.57;;
23702;SDS011;12030;50.376;8.762;2022-09-09T11:24:01;3.47;;;0.90;;
23702;SDS011;12030;50.376;8.762;2022-09-09T11:26:38;3.23;;;1.03;;
23702;SDS011;12030;50.376;8.762;2022-09-09T11:34:38;2.47;;;0.90;;
23702;SDS011;12030;50.376;8.762;2022-09-09T11:39:50;4.00;;;1.20;;
23702;SDS011;12030;50.376;8.762;2022-09-09T11:42:32;3.50;;;0.93;;
23702;SDS011;12030;50.376;8.762;2022-09-09T11:44:58;5.30;;;1.37;;
23702;SDS011;12030;50.376;8.762;2022-09-09T11:47:36;3.53;;;1.13;;
23702;SDS011;12030;50.376;8.762;2022-09-09T11:52:44;2.67;;;0.90;;
23702;SDS011;12030;50.376;8.762;2022-09-09T11:57:56;3.03;;;0.87;;
23702;SDS011;12030;50.376;8.762;2022-09-09T12:00:33;3.97;;;1.40;;
23702;SDS011;12030;50.376;8.762;2022-09-09T12:03:02;3.20;;;0.90;;
23702;SDS011;12030;50.376;8.762;2022-09-09T12:05:38;2.87;;;0.80;;
23702;SDS011;12030;50.376;8.762;2022-09-09T12:08:06;6.63;;;0.97;;
23702;SDS011;12030;50.376;8.762;2022-09-09T12:10:38;4.63;;;0.83;;
23702;SDS011;12030;50.376;8.762;2022-09-09T12:13:20;4.00;;;1.10;;
23702;SDS011;12030;50.376;8.762;2022-09-09T12:15:52;2.80;;;1.00;;
23702;SDS011;12030;50.376;8.762;2022-09-09T12:18:25;4.10;;;1.17;;
23702;SDS011;12030;50.376;8.762;2022-09-09T12:21:03;1.77;;;0.90;;
23702;SDS011;12030;50.376;8.762;2022-09-09T12:34:39;2.57;;;0.97;;
23702;SDS011;12030;50.376;8.762;2022-09-09T12:39:57;3.40;;;1.17;;
23702;SDS011;12030;50.376;8.762;2022-09-09T12:42:25;5.73;;;1.10;;
23702;SDS011;12030;50.376;8.762;2022-09-09T12:44:52;2.73;;;0.90;;
23702;SDS011;12030;50.376;8.762;2022-09-09T12:47:17;3.90;;;1.27;;
23702;SDS011;12030;50.376;8.762;2022-09-09T12:49:46;3.60;;;1.00;;
23702;SDS011;12030;50.376;8.762;2022-09-09T12:52:17;2.87;;;1.03;;
23702;SDS011;12030;50.376;8.762;2022-09-09T12:54:49;2.13;;;0.80;;
23702;SDS011;12030;50.376;8.762;2022-09-09T12:57:18;2.83;;;0.80;;
23702;SDS011;12030;50.376;8.762;2022-09-09T12:59:47;4.77;;;0.80;;
23702;SDS011;12030;50.376;8.762;2022-09-09T13:02:22;1.97;;;0.53;;
23702;SDS011;12030;50.376;8.762;2022-09-09T13:04:50;5.47;;;1.00;;
23702;SDS011;12030;50.376;8.762;2022-09-09T13:07:17;3.77;;;0.70;;
23702;SDS011;12030;50.376;8.762;2022-09-09T13:09:44;3.47;;;0.83;;
23702;SDS011;12030;50.376;8.762;2022-09-09T13:12:13;1.50;;;0.50;;
23702;SDS011;12030;50.376;8.762;2022-09-09T13:14:49;2.93;;;0.90;;
23702;SDS011;12030;50.376;8.762;2022-09-09T13:17:22;4.13;;;1.03;;
23702;SDS011;12030;50.376;8.762;2022-09-09T13:19:50;3.20;;;0.83;;
23702;SDS011;12030;50.376;8.762;2022-09-09T13:25:22;2.77;;;0.90;;
23702;SDS011;12030;50.376;8.762;2022-09-09T13:28:04;3.63;;;1.07;;
23702;SDS011;12030;50.376;8.762;2022-09-09T13:30:54;2.50;;;0.40;;
23702;SDS011;12030;50.376;8.762;2022-09-09T13:33:24;2.43;;;0.60;;
23702;SDS011;12030;50.376;8.762;2022-09-09T13:36:09;1.00;;;0.30;;
23702;SDS011;12030;50.376;8.762;2022-09-09T13:38:38;3.60;;;0.30;;
23702;SDS011;12030;50.376;8.762;2022-09-09T13:41:06;2.13;;;0.37;;
23702;SDS011;12030;50.376;8.762;2022-09-09T13:43:38;1.47;;;0.30;;
23702;SDS011;12030;50.376;8.762;2022-09-09T13:48:59;2.03;;;0.50;;
23702;SDS011;12030;50.376;8.762;2022-09-09T13:54:06;3.50;;;0.70;;
23702;SDS011;12030;50.376;8.762;2022-09-09T13:56:34;1.60;;;0.50;;
23702;SDS011;12030;50.376;8.762;2022-09-09T13:59:01;3.40;;;0.60;;
23702;SDS011;12030;50.376;8.762;2022-09-09T14:01:28;1.67;;;0.30;;
23702;SDS011;12030;50.376;8.762;2022-09-09T14:03:54;2.70;;;0.80;;
23702;SDS011;12030;50.376;8.762;2022-09-09T14:06:21;1.93;;;0.43;;
23702;SDS011;12030;50.376;8.762;2022-09-09T14:08:47;3.30;;;0.43;;
23702;SDS011;12030;50.376;8.762;2022-09-09T14:11:16;1.67;;;0.50;;
23702;SDS011;12030;50.376;8.762;2022-09-09T14:13:42;3.10;;;0.60;;
23702;SDS011;12030;50.376;8.762;2022-09-09T14:16:08;2.73;;;0.70;;
23702;SDS011;12030;50.376;8.762;2022-09-09T14:18:34;3.33;;;0.63;;
23702;SDS011;12030;50.376;8.762;2022-09-09T14:21:00;2.87;;;0.73;;
23702;SDS011;12030;50.376;8.762;2022-09-09T14:23:27;1.27;;;0.43;;
23702;SDS011;12030;50.376;8.762;2022-09-09T14:25:54;3.83;;;0.87;;
23702;SDS011;12030;50.376;8.762;2022-09-09T14:28:19;1.77;;;0.60;;
23702;SDS011;12030;50.376;8.762;2022-09-09T14:30:45;2.30;;;0.67;;
23702;SDS011;12030;50.376;8.762;2022-09-09T14:33:11;1.47;;;0.50;;
23702;SDS011;12030;50.376;8.762;2022-09-09T14:35:39;4.67;;;0.70;;
23702;SDS011;12030;50.376;8.762;2022-09-09T14:38:06;2.60;;;0.60;;
23702;SDS011;12030;50.376;8.762;2022-09-09T14:40:33;2.53;;;0.63;;
23702;SDS011;12030;50.376;8.762;2022-09-09T14:43:02;2.07;;;0.43;;
23702;SDS011;12030;50.376;8.762;2022-09-09T14:45:28;5.63;;;1.00;;
23702;SDS011;12030;50.376;8.762;2022-09-09T14:47:54;1.37;;;0.63;;
23702;SDS011;12030;50.376;8.762;2022-09-09T14:50:20;4.17;;;0.60;;
23702;SDS011;12030;50.376;8.762;2022-09-09T14:52:47;1.93;;;0.60;;
23702;SDS011;12030;50.376;8.762;2022-09-09T14:55:13;3.03;;;0.50;;
23702;SDS011;12030;50.376;8.762;2022-09-09T14:57:40;1.60;;;0.50;;
23702;SDS011;12030;50.376;8.762;2022-09-09T15:00:06;2.63;;;0.60;;
23702;SDS011;12030;50.376;8.762;2022-09-09T15:02:33;1.63;;;0.40;;
23702;SDS011;12030;50.376;8.762;2022-09-09T15:04:58;2.37;;;1.07;;
23702;SDS011;12030;50.376;8.762;2022-09-09T15:07:24;3.23;;;0.33;;
23702;SDS011;12030;50.376;8.762;2022-09-09T15:09:50;1.13;;;0.43;;
23702;SDS011;12030;50.376;8.762;2022-09-09T15:12:17;1.50;;;0.30;;
23702;SDS011;12030;50.376;8.762;2022-09-09T15:14:46;2.23;;;0.50;;
23702;SDS011;12030;50.376;8.762;2022-09-09T15:17:12;1.50;;;0.47;;
23702;SDS011;12030;50.376;8.762;2022-09-09T15:19:38;4.63;;;1.20;;
23702;SDS011;12030;50.376;8.762;2022-09-09T15:22:04;2.77;;;0.67;;
23702;SDS011;12030;50.376;8.762;2022-09-09T15:24:32;2.87;;;0.50;;
23702;SDS011;12030;50.376;8.762;2022-09-09T15:26:59;1.67;;;0.53;;
23702;SDS011;12030;50.376;8.762;2022-09-09T15:29:25;1.50;;;0.57;;
23702;SDS011;12030;50.376;8.762;2022-09-09T15:31:51;2.50;;;0.50;;
23702;SDS011;12030;50.376;8.762;2022-09-09T15:34:19;2.80;;;0.60;;
23702;SDS011;12030;50.376;8.762;2022-09-09T15:36:45;2.53;;;0.53;;
23702;SDS011;12030;50.376;8.762;2022-09-09T15:39:11;2.20;;;0.60;;
23702;SDS011;12030;50.376;8.762;2022-09-09T15:41:41;2.27;;;0.53;;
23702;SDS011;12030;50.376;8.762;2022-09-09T15:44:08;2.57;;;0.53;;
23702;SDS011;12030;50.376;8.762;2022-09-09T15:46:41;0.60;;;0.30;;
23702;SDS011;12030;50.376;8.762;2022-09-09T15:49:21;2.53;;;0.60;;
23702;SDS011;12030;50.376;8.762;2022-09-09T15:51:53;2.30;;;0.50;;
23702;SDS011;12030;50.376;8.762;2022-09-09T15:54:21;2.13;;;0.40;;
23702;SDS011;12030;50.376;8.762;2022-09-09T15:56:52;2.33;;;0.40;;
23702;SDS011;12030;50.376;8.762;2022-09-09T15:59:20;1.37;;;0.50;;
23702;SDS011;12030;50.376;8.762;2022-09-09T16:01:46;3.10;;;0.80;;
23702;SDS011;12030;50.376;8.762;2022-09-09T16:04:12;2.70;;;0.70;;
23702;SDS011;12030;50.376;8.762;2022-09-09T16:06:37;2.80;;;0.73;;
23702;SDS011;12030;50.376;8.762;2022-09-09T16:09:04;1.17;;;0.33;;
23702;SDS011;12030;50.376;8.762;2022-09-09T16:11:32;1.27;;;0.50;;
23702;SDS011;12030;50.376;8.762;2022-09-09T16:13:59;1.97;;;0.60;;
23702;SDS011;12030;50.376;8.762;2022-09-09T16:16:26;1.10;;;0.47;;
23702;SDS011;12030;50.376;8.762;2022-09-09T16:18:54;1.83;;;0.47;;
23702;SDS011;12030;50.376;8.762;2022-09-09T16:21:22;3.20;;;0.77;;
23702;SDS011;12030;50.376;8.762;2022-09-09T16:23:50;2.23;;;0.57;;
23702;SDS011;12030;50.376;8.762;2022-09-09T16:26:18;1.47;;;0.47;;
23702;SDS011;12030;50.376;8.762;2022-09-09T16:28:44;1.73;;;0.53;;
23702;SDS011;12030;50.376;8.762;2022-09-09T16:31:17;1.70;;;0.40;;
23702;SDS011;12030;50.376;8.762;2022-09-09T16:33:44;2.30;;;0.53;;
23702;SDS011;12030;50.376;8.762;2022-09-09T16:36:12;1.87;;;0.50;;
23702;SDS011;12030;50.376;8.762;2022-09-09T16:38:45;1.43;;;0.33;;
23702;SDS011;12030;50.376;8.762;2022-09-09T16:41:12;2.30;;;0.50;;
23702;SDS011;12030;50.376;8.762;2022-09-09T16:43:39;1.10;;;0.50;;
23702;SDS011;12030;50.376;8.762;2022-09-09T16:46:16;1.37;;;0.60;;
23702;SDS011;12030;50.376;8.762;2022-09-09T16:48:43;1.97;;;0.60;;
23702;SDS011;12030;50.376;8.762;2022-09-09T16:51:14;1.30;;;0.50;;
23702;SDS011;12030;50.376;8.762;2022-09-09T16:53:44;1.90;;;0.70;;
23702;SDS011;12030;50.376;8.762;2022-09-09T16:56:12;1.67;;;0.43;;
23702;SDS011;12030;50.376;8.762;2022-09-09T16:58:39;4.03;;;0.70;;
23702;SDS011;12030;50.376;8.762;2022-09-09T17:01:07;2.50;;;0.47;;
23702;SDS011;12030;50.376;8.762;2022-09-09T17:03:35;3.27;;;0.77;;
23702;SDS011;12030;50.376;8.762;2022-09-09T17:06:01;1.73;;;0.50;;
23702;SDS011;12030;50.376;8.762;2022-09-09T17:08:28;1.67;;;0.60;;
23702;SDS011;12030;50.376;8.762;2022-09-09T17:10:54;2.17;;;0.70;;
23702;SDS011;12030;50.376;8.762;2022-09-09T17:13:21;3.00;;;0.60;;
23702;SDS011;12030;50.376;8.762;2022-09-09T17:15:47;1.97;;;0.60;;
23702;SDS011;12030;50.376;8.762;2022-09-09T17:18:12;4.00;;;1.17;;